createdAt,value
2016-12-31T15:46:21.083Z,6.9
2016-12-31T15:53:04.077Z,5
2016-12-31T16:00:42.737Z,4.6
2016-12-31T16:01:28.393Z,4.4
2016-12-31T16:02:08.562Z,4.3
2016-12-31T16:04:43.011Z,5.7
2016-12-31T16:07:51.268Z,14.5
2016-12-31T16:08:08.179Z,14.9
2016-12-31T16:08:25.092Z,15.3
2016-12-31T16:08:42.016Z,15.8
2016-12-31T16:08:58.921Z,16.3
2016-12-31T16:09:15.823Z,16.6
2016-12-31T16:09:32.740Z,17
2016-12-31T16:09:49.646Z,17.3
2016-12-31T16:10:06.550Z,17.6
2016-12-31T16:10:23.474Z,17.8
2016-12-31T16:10:40.370Z,18.1
2016-12-31T16:10:57.280Z,18.3
2016-12-31T16:11:14.211Z,18.5
2016-12-31T16:11:31.115Z,18.6
2016-12-31T16:11:48.025Z,18.8
2016-12-31T16:12:04.943Z,19
2016-12-31T16:12:21.870Z,19.1
2016-12-31T16:12:38.789Z,19.2
2016-12-31T16:12:55.717Z,19.4
2016-12-31T16:13:12.667Z,19.5
2016-12-31T16:13:29.644Z,19.6
2016-12-31T16:13:46.544Z,19.7
2016-12-31T16:14:03.450Z,19.8
2016-12-31T16:14:20.388Z,19.9
2016-12-31T16:14:37.292Z,19.9
2016-12-31T16:14:54.195Z,20
2016-12-31T16:15:11.089Z,20.1
2016-12-31T16:15:27.993Z,20.1
2016-12-31T16:15:44.904Z,20.2
2016-12-31T16:16:01.845Z,20.2
2016-12-31T16:16:18.749Z,20.3
2016-12-31T16:16:35.664Z,20.3
2016-12-31T16:16:52.585Z,20.4
2016-12-31T16:17:09.179Z,20.4
2016-12-31T16:17:26.084Z,20.4
2016-12-31T16:17:43.001Z,20.5
2016-12-31T16:18:00.016Z,20.5
2016-12-31T16:18:16.912Z,20.5
2016-12-31T16:18:33.805Z,20.6
2016-12-31T16:18:50.734Z,20.6
2016-12-31T16:19:07.637Z,20.6
2016-12-31T16:19:24.540Z,20.6
2016-12-31T16:19:41.452Z,20.6
2016-12-31T16:19:58.339Z,20.7
2016-12-31T16:20:15.287Z,20.7
2016-12-31T16:20:31.890Z,20.7
2016-12-31T16:20:48.798Z,20.7
2016-12-31T16:21:05.695Z,20.8
2016-12-31T16:21:22.598Z,20.8
2016-12-31T16:21:39.508Z,20.8
2016-12-31T16:21:56.433Z,20.8
2016-12-31T16:22:13.341Z,20.8
2016-12-31T16:22:30.237Z,20.9
2016-12-31T16:22:47.174Z,20.9
2016-12-31T16:23:04.074Z,20.9
2016-12-31T16:23:20.992Z,20.9
2016-12-31T16:23:37.907Z,20.9
2016-12-31T16:23:54.824Z,20.9
2016-12-31T16:24:11.738Z,20.9
2016-12-31T16:24:28.643Z,21
2016-12-31T16:24:45.545Z,21
2016-12-31T16:25:02.490Z,21
2016-12-31T16:25:19.391Z,21
2016-12-31T16:25:36.322Z,21
2016-12-31T16:25:53.243Z,21
2016-12-31T16:26:10.150Z,21
2016-12-31T16:26:27.096Z,21
2016-12-31T16:26:44.002Z,21.1
2016-12-31T16:27:00.929Z,21.1
2016-12-31T16:27:17.822Z,21.1
2016-12-31T16:27:34.734Z,21.1
2016-12-31T16:27:51.682Z,21.1
2016-12-31T16:28:08.591Z,21.1
2016-12-31T16:28:25.493Z,21.1
2016-12-31T16:28:42.390Z,21.1
2016-12-31T16:28:59.291Z,21.1
2016-12-31T16:29:16.195Z,21.1
2016-12-31T16:29:33.091Z,21.2
2016-12-31T16:29:49.986Z,21.1
2016-12-31T16:30:06.888Z,21.2
2016-12-31T16:30:23.846Z,21.2
2016-12-31T16:30:40.762Z,21.2
2016-12-31T16:30:57.664Z,21.2
2016-12-31T16:31:14.574Z,21.2
2016-12-31T16:31:31.470Z,21.2
2016-12-31T16:31:48.409Z,21.2
2016-12-31T16:32:05.346Z,21.2
2016-12-31T16:32:22.245Z,21.2
2016-12-31T16:32:39.141Z,21.2
2016-12-31T16:32:56.047Z,21.2
2016-12-31T16:33:12.944Z,21.2
2016-12-31T16:33:29.848Z,21.2
2016-12-31T16:33:46.751Z,21.2
2016-12-31T16:34:03.651Z,21.2
2016-12-31T16:34:20.567Z,21.2
2016-12-31T16:34:37.474Z,21.2
2016-12-31T16:34:54.373Z,21.3
2016-12-31T16:35:11.277Z,21.2
2016-12-31T16:35:28.176Z,21.2
2016-12-31T16:35:45.078Z,21.3
2016-12-31T16:36:01.977Z,21.3
2016-12-31T16:36:18.877Z,21.3
2016-12-31T16:36:35.776Z,21.3
2016-12-31T16:36:52.680Z,21.3
2016-12-31T16:37:09.597Z,21.3
2016-12-31T16:37:26.497Z,21.3
2016-12-31T16:37:43.396Z,21.3
2016-12-31T16:38:00.307Z,21.3
2016-12-31T16:38:17.219Z,21.3
2016-12-31T16:38:34.136Z,21.3
2016-12-31T16:38:51.042Z,21.3
2016-12-31T16:39:07.943Z,21.3
2016-12-31T16:39:24.873Z,21.3
2016-12-31T16:39:41.773Z,21.3
2016-12-31T16:39:58.678Z,21.3
2016-12-31T16:40:15.583Z,21.3
2016-12-31T16:40:32.500Z,21.3
2016-12-31T16:40:49.418Z,21.3
2016-12-31T16:41:06.344Z,21.3
2016-12-31T16:41:23.277Z,21.4
2016-12-31T16:41:40.177Z,21.4
2016-12-31T16:41:57.076Z,21.4
2016-12-31T16:42:13.973Z,21.3
2016-12-31T16:42:30.901Z,21.3
2016-12-31T16:42:47.799Z,21.4
2016-12-31T16:43:04.700Z,21.4
2016-12-31T16:43:21.608Z,21.4
2016-12-31T16:43:38.507Z,21.4
2016-12-31T16:43:55.424Z,21.4
2016-12-31T16:44:12.324Z,21.4
2016-12-31T16:44:29.230Z,21.4
2016-12-31T16:44:46.141Z,21.4
2016-12-31T16:45:03.140Z,21.4
2016-12-31T16:45:20.045Z,21.4
2016-12-31T16:45:36.948Z,21.4
2016-12-31T16:45:53.851Z,21.4
2016-12-31T16:46:10.755Z,21.4
2016-12-31T16:46:27.658Z,21.4
2016-12-31T16:46:44.564Z,21.4
2016-12-31T16:47:01.691Z,21.4
2016-12-31T16:47:18.382Z,21.4
2016-12-31T16:47:35.290Z,21.4
2016-12-31T16:47:52.189Z,21.4
2016-12-31T16:48:09.089Z,21.4
2016-12-31T16:48:25.998Z,21.4
2016-12-31T16:48:42.894Z,21.4
2016-12-31T16:48:59.795Z,21.4
2016-12-31T16:49:16.689Z,21.4
2016-12-31T16:49:33.592Z,21.4
2016-12-31T16:49:50.493Z,21.4
2016-12-31T16:50:07.395Z,21.4
2016-12-31T16:50:24.297Z,21.4
2016-12-31T16:50:41.197Z,21.4
2016-12-31T16:50:58.095Z,21.4
2016-12-31T16:51:14.996Z,21.4
2016-12-31T16:51:31.909Z,21.4
2016-12-31T16:51:48.823Z,21.4
2016-12-31T16:52:05.734Z,21.4
2016-12-31T16:52:22.643Z,21.4
2016-12-31T16:52:39.533Z,21.4
2016-12-31T16:52:56.432Z,21.4
2016-12-31T16:53:13.336Z,21.5
2016-12-31T16:53:30.243Z,21.5
2016-12-31T16:53:47.149Z,21.5
2016-12-31T16:54:04.058Z,21.5
2016-12-31T16:54:20.967Z,21.5
2016-12-31T16:54:37.866Z,21.5
2016-12-31T16:54:54.778Z,21.5
2016-12-31T16:55:11.716Z,21.4
2016-12-31T16:55:28.617Z,21.4
2016-12-31T16:55:45.526Z,21.5
2016-12-31T16:56:02.424Z,21.5
2016-12-31T16:58:30.489Z,22.2
2016-12-31T16:58:47.420Z,22.2
2016-12-31T16:59:04.331Z,22.2
2016-12-31T16:59:21.276Z,22
2016-12-31T16:59:38.187Z,21.8
2016-12-31T16:59:55.130Z,21.7
2016-12-31T17:00:12.039Z,21.6
2016-12-31T17:00:28.947Z,21.4
2016-12-31T17:00:45.863Z,21.3
2016-12-31T17:01:02.792Z,21.2
2016-12-31T17:01:19.704Z,21.1
2016-12-31T17:01:36.625Z,21
2016-12-31T17:01:53.601Z,20.9
2016-12-31T17:02:10.511Z,20.8
2016-12-31T17:02:27.429Z,20.8
2016-12-31T17:02:44.341Z,20.7
2016-12-31T17:03:01.281Z,20.7
2016-12-31T17:03:18.198Z,20.6
2016-12-31T17:03:35.125Z,20.6
2016-12-31T17:03:52.042Z,20.6
2016-12-31T17:04:08.958Z,20.6
2016-12-31T17:04:25.872Z,20.6
2016-12-31T17:04:42.793Z,20.6
2016-12-31T17:04:59.721Z,20.5
2016-12-31T17:05:16.725Z,20.5
2016-12-31T17:05:33.604Z,20.5
2016-12-31T17:05:50.508Z,20.5
2016-12-31T17:06:07.417Z,20.4
2016-12-31T17:06:24.326Z,20.5
2016-12-31T17:06:41.230Z,20.4
2016-12-31T17:06:58.158Z,20.4
2016-12-31T17:07:15.055Z,20.4
2016-12-31T17:07:31.653Z,20.5
2016-12-31T17:07:48.261Z,20.4
2016-12-31T17:08:05.169Z,20.4
2016-12-31T17:08:22.091Z,20.4
2016-12-31T17:08:39.028Z,20.4
2016-12-31T17:08:55.939Z,20.4
2016-12-31T17:09:12.867Z,20.4
2016-12-31T17:09:29.792Z,20.4
2016-12-31T17:09:46.849Z,20.4
2016-12-31T17:10:03.762Z,20.3
2016-12-31T17:10:20.696Z,20.3
2016-12-31T17:10:37.621Z,20.3
2016-12-31T17:10:54.533Z,20.3
2016-12-31T17:11:11.437Z,20.3
2016-12-31T17:11:28.345Z,20.3
2016-12-31T17:11:45.266Z,20.3
2016-12-31T17:12:02.182Z,20.3
2016-12-31T17:12:19.098Z,20.3
2016-12-31T17:12:36.021Z,20.3
2016-12-31T17:12:52.937Z,20.3
2016-12-31T17:13:09.861Z,20.3
2016-12-31T17:13:26.996Z,20.3
2016-12-31T17:13:43.915Z,20.3
2016-12-31T17:14:00.830Z,20.3
2016-12-31T17:14:17.734Z,20.3
2016-12-31T17:14:34.672Z,20.3
2016-12-31T17:14:51.577Z,20.3
2016-12-31T17:15:08.492Z,20.3
2016-12-31T17:15:25.415Z,20.3
2016-12-31T17:15:42.369Z,20.3
2016-12-31T17:15:59.267Z,20.3
2016-12-31T17:16:16.224Z,20.3
2016-12-31T17:16:33.131Z,20.2
2016-12-31T17:16:50.051Z,20.3
2016-12-31T17:17:07.098Z,20.2
2016-12-31T17:17:24.022Z,20.3
2016-12-31T17:17:40.940Z,20.3
2016-12-31T17:17:57.847Z,20.3
2016-12-31T17:18:14.757Z,20.2
2016-12-31T17:18:31.670Z,20.2
2016-12-31T17:18:48.591Z,20.2
2016-12-31T17:19:05.525Z,20.2
2016-12-31T17:19:22.438Z,20.2
2016-12-31T17:19:39.348Z,20.2
2016-12-31T17:19:56.260Z,20.2
2016-12-31T17:20:13.181Z,20.2
2016-12-31T17:20:30.094Z,20.2
2016-12-31T17:20:47.004Z,20.2
2016-12-31T17:21:03.915Z,20.2
2016-12-31T17:21:20.828Z,20.3
2016-12-31T17:21:37.744Z,20.2
2016-12-31T17:21:54.681Z,20.2
2016-12-31T17:22:11.594Z,20.2
2016-12-31T17:22:28.502Z,20.2
2016-12-31T17:22:45.424Z,20.2
2016-12-31T17:23:02.343Z,20.2
2016-12-31T17:23:19.255Z,20.2
2016-12-31T17:23:36.166Z,20.2
2016-12-31T17:23:52.762Z,20.2
2016-12-31T17:24:09.687Z,20.2
2016-12-31T17:24:26.601Z,20.2
2016-12-31T17:24:43.506Z,20.2
2016-12-31T17:25:00.411Z,20.2
2016-12-31T17:25:17.323Z,20.2
2016-12-31T17:25:34.238Z,20.2
2016-12-31T17:25:51.160Z,20.2
2016-12-31T17:26:08.075Z,20.2
2016-12-31T17:26:24.983Z,20.2
2016-12-31T17:26:41.895Z,20.2
2016-12-31T17:26:58.820Z,20.2
2016-12-31T17:27:15.718Z,20.2
2016-12-31T17:27:32.633Z,20.2
2016-12-31T17:27:49.743Z,20.2
2016-12-31T17:28:06.658Z,20.2
2016-12-31T17:28:23.578Z,20.2
2016-12-31T17:28:40.659Z,20.2
2016-12-31T17:28:57.580Z,20.2
2016-12-31T17:29:14.501Z,20.2
2016-12-31T17:29:31.422Z,20.2
2016-12-31T17:29:48.332Z,20.2
2016-12-31T17:30:05.240Z,20.2
2016-12-31T17:30:21.844Z,20.2
2016-12-31T17:30:38.753Z,20.2
2016-12-31T17:30:55.679Z,20.2
2016-12-31T17:31:18.365Z,20.2
2016-12-31T17:31:35.277Z,20.2
2016-12-31T17:31:52.204Z,20.2
2016-12-31T17:32:09.136Z,20.2
2016-12-31T17:32:26.064Z,20.2
2016-12-31T17:32:43.228Z,20.2
2016-12-31T17:33:00.144Z,20.2
2016-12-31T17:33:17.069Z,20.3
2016-12-31T17:33:33.987Z,20.2
2016-12-31T17:33:50.904Z,20.2
2016-12-31T17:34:07.826Z,20.2
2016-12-31T17:34:24.735Z,20.2
2016-12-31T17:34:41.649Z,20.2
2016-12-31T17:34:58.575Z,20.2
2016-12-31T17:35:15.486Z,20.2
2016-12-31T17:35:32.411Z,20.2
2016-12-31T17:35:49.335Z,20.2
2016-12-31T17:36:06.232Z,20.2
2016-12-31T17:36:22.842Z,20.2
2016-12-31T17:36:39.753Z,20.2
2016-12-31T17:36:56.669Z,20.2
2016-12-31T17:37:13.591Z,20.2
2016-12-31T17:37:30.490Z,20.2
2016-12-31T17:37:47.414Z,20.2
2016-12-31T17:38:04.342Z,20.2
2016-12-31T17:38:21.258Z,20.2
2016-12-31T17:38:38.166Z,20.2
2016-12-31T17:38:55.081Z,20.2
2016-12-31T17:39:11.984Z,20.2
2016-12-31T17:39:28.900Z,20.2
2016-12-31T17:39:45.820Z,20.3
2016-12-31T17:40:02.767Z,20.3
2016-12-31T17:40:19.680Z,20.3
2016-12-31T17:40:36.596Z,20.3
2016-12-31T17:40:53.504Z,20.3
2016-12-31T17:41:10.107Z,20.3
2016-12-31T17:41:27.027Z,20.3
2016-12-31T17:41:43.948Z,20.2
2016-12-31T17:42:00.872Z,20.2
2016-12-31T17:42:17.778Z,20.2
2016-12-31T17:42:34.708Z,20.2
2016-12-31T17:42:51.632Z,20.2
2016-12-31T17:43:08.547Z,20.2
2016-12-31T17:43:25.467Z,20.2
2016-12-31T17:43:42.394Z,20.2
2016-12-31T17:43:59.315Z,20.2
2016-12-31T17:44:16.246Z,20.1
2016-12-31T17:44:33.177Z,20.1
2016-12-31T17:44:50.084Z,20.1
2016-12-31T17:45:07.003Z,20.1
2016-12-31T17:45:23.911Z,20.1
2016-12-31T17:45:40.831Z,20.1
2016-12-31T17:45:57.762Z,20.1
2016-12-31T17:46:14.678Z,20
2016-12-31T17:46:31.595Z,20
2016-12-31T17:46:48.515Z,20
2016-12-31T17:47:05.454Z,20.1
2016-12-31T17:47:22.364Z,20.1
2016-12-31T17:47:39.273Z,20.1
2016-12-31T17:47:56.195Z,20.1
2016-12-31T17:48:13.112Z,20.1
2016-12-31T17:48:30.026Z,20.1
2016-12-31T17:48:47.165Z,20.1
2016-12-31T17:49:04.084Z,20.1
2016-12-31T17:49:20.988Z,20.1
2016-12-31T17:49:38.184Z,20.1
2016-12-31T17:49:55.267Z,20.1
2016-12-31T17:50:12.367Z,20.1
2016-12-31T17:50:29.284Z,20.1
2016-12-31T17:50:46.197Z,20.1
2016-12-31T17:51:03.120Z,20.1
2016-12-31T17:51:20.050Z,20.1
2016-12-31T17:51:37.038Z,20.1
2016-12-31T17:51:53.963Z,20.1
2016-12-31T17:52:10.861Z,20.1
2016-12-31T17:52:27.776Z,20.1
2016-12-31T17:52:44.677Z,20.1
2016-12-31T17:53:01.597Z,20.1
2016-12-31T17:53:18.514Z,20.2
2016-12-31T17:53:35.418Z,20.1
2016-12-31T17:53:52.339Z,20.2
2016-12-31T17:54:09.251Z,20.1
2016-12-31T17:54:26.152Z,20.1
2016-12-31T17:54:43.075Z,20.1
2016-12-31T17:54:59.985Z,20.1
2016-12-31T17:55:16.895Z,20.1
2016-12-31T17:55:33.808Z,20.1
2016-12-31T17:55:50.714Z,20.1
2016-12-31T17:56:07.700Z,20.1
2016-12-31T17:56:24.616Z,20.1
2016-12-31T17:56:41.227Z,20.1
2016-12-31T17:56:58.194Z,20.1
2016-12-31T17:57:15.123Z,20.1
2016-12-31T17:57:32.051Z,20.1
2016-12-31T17:57:48.663Z,20.1
2016-12-31T17:58:05.279Z,20.1
2016-12-31T17:58:22.195Z,20.1
2016-12-31T17:58:39.120Z,20.1
2016-12-31T17:58:56.026Z,20
2016-12-31T17:59:12.944Z,20
2016-12-31T17:59:29.854Z,20
2016-12-31T17:59:46.774Z,20
2016-12-31T18:00:03.676Z,20
2016-12-31T18:00:20.290Z,20
2016-12-31T18:00:37.198Z,20
2016-12-31T18:00:54.115Z,20
2016-12-31T18:01:11.022Z,20
2016-12-31T18:01:27.950Z,20
2016-12-31T18:01:44.878Z,20
2016-12-31T18:02:01.817Z,20
2016-12-31T18:02:18.736Z,20
2016-12-31T18:02:35.698Z,20
2016-12-31T18:02:52.631Z,20
2016-12-31T18:03:09.547Z,20
2016-12-31T18:03:26.511Z,20
2016-12-31T18:03:43.422Z,20
2016-12-31T18:04:00.331Z,20
2016-12-31T18:04:17.253Z,20
2016-12-31T18:04:34.171Z,20
2016-12-31T18:04:51.085Z,20
2016-12-31T18:05:07.999Z,20
2016-12-31T18:05:24.904Z,20
2016-12-31T18:05:41.810Z,20
2016-12-31T18:05:58.730Z,20
2016-12-31T18:06:15.654Z,20
2016-12-31T18:06:32.569Z,20
2016-12-31T18:06:49.162Z,20
2016-12-31T18:07:06.143Z,20
2016-12-31T18:07:23.057Z,20
2016-12-31T18:07:39.973Z,20
2016-12-31T18:07:56.964Z,20
2016-12-31T18:08:13.873Z,20
2016-12-31T18:08:30.779Z,19.9
2016-12-31T18:08:47.692Z,20
2016-12-31T18:09:04.604Z,20
2016-12-31T18:09:21.511Z,20
2016-12-31T18:09:38.423Z,20
2016-12-31T18:09:55.342Z,20
2016-12-31T18:10:12.252Z,20
2016-12-31T18:10:29.405Z,20
2016-12-31T18:10:46.106Z,20
2016-12-31T18:11:03.026Z,20
2016-12-31T18:11:19.928Z,20
2016-12-31T18:11:36.843Z,20
2016-12-31T18:11:53.751Z,20
2016-12-31T18:12:10.664Z,20
2016-12-31T18:12:27.573Z,20
2016-12-31T18:12:44.497Z,20
2016-12-31T18:13:01.398Z,20
2016-12-31T18:13:18.308Z,20
2016-12-31T18:13:35.219Z,20
2016-12-31T18:13:51.807Z,20
2016-12-31T18:14:08.721Z,20
2016-12-31T18:14:25.654Z,20
2016-12-31T18:14:42.552Z,20
2016-12-31T18:14:59.497Z,20
2016-12-31T18:15:16.388Z,20
2016-12-31T18:15:33.303Z,20
2016-12-31T18:15:50.239Z,20
2016-12-31T18:16:07.151Z,20
2016-12-31T18:16:24.162Z,20
2016-12-31T18:16:41.078Z,20
2016-12-31T18:16:58.069Z,20
2016-12-31T18:17:14.985Z,20
2016-12-31T18:17:31.916Z,20.1
2016-12-31T18:17:48.834Z,20.1
2016-12-31T18:18:05.745Z,20.1
2016-12-31T18:18:22.687Z,20.1
2016-12-31T18:18:39.610Z,20.1
2016-12-31T18:18:56.514Z,20.1
2016-12-31T18:19:13.428Z,20.1
2016-12-31T18:19:30.348Z,20.1
2016-12-31T18:19:47.288Z,20.1
2016-12-31T18:20:04.390Z,20.1
2016-12-31T18:20:21.355Z,20.1
2016-12-31T18:20:38.284Z,20.1
2016-12-31T18:20:55.185Z,20.1
2016-12-31T18:21:12.102Z,20.1
2016-12-31T18:21:29.018Z,20.2
2016-12-31T18:21:45.927Z,20.2
2016-12-31T18:22:02.847Z,20.2
2016-12-31T18:22:19.762Z,20.2
2016-12-31T18:22:36.367Z,20.2
2016-12-31T18:22:53.274Z,20.2
2016-12-31T18:23:10.181Z,20.2
2016-12-31T18:23:27.098Z,20.2
2016-12-31T18:23:44.018Z,20.2
2016-12-31T18:24:00.935Z,20.2
2016-12-31T18:24:17.541Z,20.2
2016-12-31T18:24:34.453Z,20.2
2016-12-31T18:24:51.368Z,20.3
2016-12-31T18:25:08.274Z,20.3
2016-12-31T18:25:25.185Z,20.3
2016-12-31T18:25:42.153Z,20.3
2016-12-31T18:25:59.202Z,20.3
2016-12-31T18:26:16.102Z,20.3
2016-12-31T18:26:33.024Z,20.3
2016-12-31T18:26:49.939Z,20.3
2016-12-31T18:27:06.852Z,20.3
2016-12-31T18:27:23.770Z,20.3
2016-12-31T18:27:40.685Z,20.3
2016-12-31T18:27:57.588Z,20.3
2016-12-31T18:28:14.559Z,20.3
2016-12-31T18:28:31.460Z,20.3
2016-12-31T18:28:48.388Z,20.3
2016-12-31T18:29:05.315Z,20.3
2016-12-31T18:29:22.223Z,20.3
2016-12-31T18:29:39.144Z,20.3
2016-12-31T18:29:56.061Z,20.4
2016-12-31T18:30:12.997Z,20.4
2016-12-31T18:30:29.905Z,20.4
2016-12-31T18:30:46.818Z,20.4
2016-12-31T18:31:03.732Z,20.4
2016-12-31T18:31:20.659Z,20.4
2016-12-31T18:31:37.570Z,20.3
2016-12-31T18:31:54.482Z,20.3
2016-12-31T18:32:11.441Z,20.3
2016-12-31T18:32:28.355Z,20.4
2016-12-31T18:32:45.266Z,20.3
2016-12-31T18:33:02.176Z,20.3
2016-12-31T18:33:18.768Z,20.4
2016-12-31T18:33:35.681Z,20.4
2016-12-31T18:33:52.605Z,20.4
2016-12-31T18:34:09.522Z,20.4
2016-12-31T18:34:26.432Z,20.4
2016-12-31T18:34:43.342Z,20.4
2016-12-31T18:35:00.251Z,20.4
2016-12-31T18:35:17.164Z,20.4
2016-12-31T18:35:34.076Z,20.4
2016-12-31T18:35:51.008Z,20.4
2016-12-31T18:36:07.910Z,20.4
2016-12-31T18:36:24.503Z,20.4
2016-12-31T18:36:41.416Z,20.5
2016-12-31T18:36:58.332Z,20.4
2016-12-31T18:37:15.239Z,20.4
2016-12-31T18:37:32.152Z,20.4
2016-12-31T18:37:49.064Z,20.4
2016-12-31T18:38:05.971Z,20.4
2016-12-31T18:38:22.883Z,20.4
2016-12-31T18:38:39.789Z,20.4
2016-12-31T18:38:56.708Z,20.4
2016-12-31T18:39:13.625Z,20.4
2016-12-31T18:39:30.527Z,20.4
2016-12-31T18:39:47.480Z,20.4
2016-12-31T18:40:04.388Z,20.4
2016-12-31T18:40:21.296Z,20.4
2016-12-31T18:40:38.207Z,20.4
2016-12-31T18:40:55.133Z,20.4
2016-12-31T18:41:12.059Z,20.4
2016-12-31T18:41:28.962Z,20.4
2016-12-31T18:41:45.876Z,20.4
2016-12-31T18:42:02.854Z,20.4
2016-12-31T18:42:19.755Z,20.4
2016-12-31T18:42:36.662Z,20.4
2016-12-31T18:42:53.577Z,20.4
2016-12-31T18:43:10.234Z,20.4
2016-12-31T18:43:27.143Z,20.3
2016-12-31T18:43:44.076Z,20.4
2016-12-31T18:44:00.983Z,20.4
2016-12-31T18:44:17.889Z,20.4
2016-12-31T18:44:34.803Z,20.4
2016-12-31T18:44:51.767Z,20.4
2016-12-31T18:45:08.679Z,20.4
2016-12-31T18:45:25.587Z,20.4
2016-12-31T18:45:42.504Z,20.4
2016-12-31T18:45:59.482Z,20.4
2016-12-31T18:46:16.399Z,20.3
2016-12-31T18:46:33.311Z,20.3
2016-12-31T18:46:50.242Z,20.3
2016-12-31T18:47:07.164Z,20.3
2016-12-31T18:47:24.083Z,20.3
2016-12-31T18:47:40.993Z,20.3
2016-12-31T18:47:57.898Z,20.3
2016-12-31T18:48:14.828Z,20.3
2016-12-31T18:48:31.738Z,20.3
2016-12-31T18:48:48.643Z,20.3
2016-12-31T18:49:05.560Z,20.3
2016-12-31T18:49:22.472Z,20.3
2016-12-31T18:49:39.392Z,20.3
2016-12-31T18:49:56.309Z,20.3
2016-12-31T18:50:13.221Z,20.3
2016-12-31T18:50:30.132Z,20.3
2016-12-31T18:50:47.049Z,20.3
2016-12-31T18:51:03.963Z,20.3
2016-12-31T18:51:20.879Z,20.3
2016-12-31T18:51:37.478Z,20.3
2016-12-31T18:51:54.386Z,20.3
2016-12-31T18:52:11.321Z,20.3
2016-12-31T18:52:28.227Z,20.3
2016-12-31T18:52:45.138Z,20.3
2016-12-31T18:53:02.056Z,20.3
2016-12-31T18:53:18.973Z,20.3
2016-12-31T18:53:35.891Z,20.3
2016-12-31T18:53:52.808Z,20.3
2016-12-31T18:54:09.719Z,20.3
2016-12-31T18:54:26.631Z,20.3
2016-12-31T18:54:43.570Z,20.3
2016-12-31T18:55:00.482Z,20.3
2016-12-31T18:55:17.386Z,20.3
2016-12-31T18:55:34.309Z,20.3
2016-12-31T18:55:51.219Z,20.3
2016-12-31T18:56:08.132Z,20.3
2016-12-31T18:56:25.061Z,20.3
2016-12-31T18:56:41.989Z,20.3
2016-12-31T18:56:58.910Z,20.3
2016-12-31T18:57:15.832Z,20.3
2016-12-31T18:57:32.736Z,20.3
2016-12-31T18:57:49.661Z,20.3
2016-12-31T18:58:06.568Z,20.3
2016-12-31T18:58:23.488Z,20.3
2016-12-31T18:58:40.459Z,20.3
2016-12-31T18:58:57.369Z,20.3
2016-12-31T18:59:14.295Z,20.3
2016-12-31T18:59:31.216Z,20.3
2016-12-31T18:59:48.144Z,20.3
2016-12-31T19:00:05.062Z,20.3
2016-12-31T19:00:21.971Z,20.3
2016-12-31T19:00:38.892Z,20.2
2016-12-31T19:00:55.795Z,20.2
2016-12-31T19:01:12.705Z,20.2
2016-12-31T19:01:29.623Z,20.2
2016-12-31T19:01:46.534Z,20.2
2016-12-31T19:02:03.440Z,20.2
2016-12-31T19:02:20.368Z,20.2
2016-12-31T19:02:37.271Z,20.3
2016-12-31T19:02:54.200Z,20.2
2016-12-31T19:03:11.118Z,20.3
2016-12-31T19:03:28.052Z,20.2
2016-12-31T19:03:44.961Z,20.2
2016-12-31T19:04:01.887Z,20.3
2016-12-31T19:04:18.872Z,20.2
2016-12-31T19:04:35.775Z,20.2
2016-12-31T19:04:52.689Z,20.2
2016-12-31T19:05:09.356Z,20.2
2016-12-31T19:05:26.296Z,20.2
2016-12-31T19:05:43.207Z,20.2
2016-12-31T19:06:00.192Z,20.2
2016-12-31T19:06:17.112Z,20.2
2016-12-31T19:06:34.038Z,20.2
2016-12-31T19:06:50.967Z,20.2
2016-12-31T19:07:07.871Z,20.2
2016-12-31T19:07:24.891Z,20.2
2016-12-31T19:07:41.796Z,20.2
2016-12-31T19:07:58.699Z,20.2
2016-12-31T19:08:15.611Z,20.2
2016-12-31T19:08:32.524Z,20.2
2016-12-31T19:08:49.449Z,20.2
2016-12-31T19:09:06.356Z,20.2
2016-12-31T19:09:23.277Z,20.2
2016-12-31T19:09:40.187Z,20.2
2016-12-31T19:09:57.108Z,20.2
2016-12-31T19:10:14.013Z,20.2
2016-12-31T19:10:30.932Z,20.2
2016-12-31T19:10:47.866Z,20.2
2016-12-31T19:11:04.783Z,20.1
2016-12-31T19:11:21.831Z,20.1
2016-12-31T19:11:38.751Z,20.2
2016-12-31T19:11:55.665Z,20.2
2016-12-31T19:12:12.586Z,20.2
2016-12-31T19:12:29.511Z,20.2
2016-12-31T19:12:46.443Z,20.2
2016-12-31T19:13:03.347Z,20.2
2016-12-31T19:13:20.266Z,20.2
2016-12-31T19:13:37.178Z,20.2
2016-12-31T19:13:54.097Z,20.2
2016-12-31T19:14:11.011Z,20.2
2016-12-31T19:14:27.958Z,20.2
2016-12-31T19:14:44.884Z,20.2
2016-12-31T19:15:01.805Z,20.2
2016-12-31T19:15:18.715Z,20.2
2016-12-31T19:15:35.622Z,20.2
2016-12-31T19:15:52.538Z,20.2
2016-12-31T19:16:09.461Z,20.2
2016-12-31T19:16:26.367Z,20.2
2016-12-31T19:16:43.300Z,20.2
2016-12-31T19:17:00.206Z,20.2
2016-12-31T19:17:17.114Z,20.2
2016-12-31T19:17:34.031Z,20.2
2016-12-31T19:17:50.940Z,20.2
2016-12-31T19:18:07.854Z,20.2
2016-12-31T19:18:24.770Z,20.2
2016-12-31T19:18:41.683Z,20.2
2016-12-31T19:18:58.589Z,20.2
2016-12-31T19:19:15.500Z,20.3
2016-12-31T19:19:32.417Z,20.3
2016-12-31T19:19:49.323Z,20.3
2016-12-31T19:20:06.241Z,20.2
2016-12-31T19:20:23.150Z,20.3
2016-12-31T19:20:40.067Z,20.3
2016-12-31T19:20:56.981Z,20.3
2016-12-31T19:21:13.905Z,20.3
2016-12-31T19:21:30.859Z,20.3
2016-12-31T19:21:47.781Z,20.3
2016-12-31T19:22:04.689Z,20.3
2016-12-31T19:22:21.669Z,20.3
2016-12-31T19:22:38.572Z,20.3
2016-12-31T19:22:55.483Z,20.3
2016-12-31T19:23:12.403Z,20.3
2016-12-31T19:23:29.319Z,20.3
2016-12-31T19:23:46.222Z,20.3
2016-12-31T19:24:03.128Z,20.3
2016-12-31T19:24:20.041Z,20.3
2016-12-31T19:24:36.978Z,20.3
2016-12-31T19:24:53.900Z,20.3
2016-12-31T19:25:10.816Z,20.3
2016-12-31T19:25:27.747Z,20.3
2016-12-31T19:25:44.662Z,20.3
2016-12-31T19:26:01.580Z,20.3
2016-12-31T19:26:18.497Z,20.3
2016-12-31T19:26:35.398Z,20.3
2016-12-31T19:26:52.371Z,20.3
2016-12-31T19:27:09.291Z,20.3
2016-12-31T19:27:26.210Z,20.3
2016-12-31T19:27:43.122Z,20.3
2016-12-31T19:28:00.039Z,20.3
2016-12-31T19:28:16.959Z,20.3
2016-12-31T19:28:33.870Z,20.3
2016-12-31T19:28:50.798Z,20.3
2016-12-31T19:29:07.697Z,20.3
2016-12-31T19:29:24.299Z,20.4
2016-12-31T19:29:41.210Z,20.4
2016-12-31T19:29:58.121Z,20.4
2016-12-31T19:30:15.041Z,20.4
2016-12-31T19:30:31.974Z,20.4
2016-12-31T19:30:48.894Z,20.4
2016-12-31T19:31:05.816Z,20.4
2016-12-31T19:31:22.767Z,20.4
2016-12-31T19:31:39.722Z,20.4
2016-12-31T19:31:56.636Z,20.4
2016-12-31T19:32:13.543Z,20.4
2016-12-31T19:32:30.465Z,20.4
2016-12-31T19:32:47.388Z,20.4
2016-12-31T19:33:04.305Z,20.4
2016-12-31T19:33:21.220Z,20.4
2016-12-31T19:33:38.137Z,20.4
2016-12-31T19:33:55.040Z,20.4
2016-12-31T19:34:11.954Z,20.4
2016-12-31T19:34:28.874Z,20.4
2016-12-31T19:34:45.835Z,20.4
2016-12-31T19:35:02.761Z,20.4
2016-12-31T19:35:19.664Z,20.4
2016-12-31T19:35:36.586Z,20.4
2016-12-31T19:35:53.507Z,20.4
2016-12-31T19:36:10.417Z,20.4
2016-12-31T19:36:27.348Z,20.4
2016-12-31T19:36:44.344Z,20.4
2016-12-31T19:37:01.279Z,20.4
2016-12-31T19:37:18.183Z,20.4
2016-12-31T19:37:35.106Z,20.4
2016-12-31T19:37:52.064Z,20.4
2016-12-31T19:38:08.967Z,20.4
2016-12-31T19:38:25.585Z,20.4
2016-12-31T19:38:42.516Z,20.4
2016-12-31T19:38:59.430Z,20.4
2016-12-31T19:39:16.353Z,20.4
2016-12-31T19:39:33.273Z,20.4
2016-12-31T19:39:50.191Z,20.4
2016-12-31T19:40:07.162Z,20.4
2016-12-31T19:40:24.085Z,20.4
2016-12-31T19:40:40.685Z,20.4
2016-12-31T19:40:57.605Z,20.4
2016-12-31T19:41:14.523Z,20.4
2016-12-31T19:41:31.435Z,20.4
2016-12-31T19:41:48.346Z,20.4
2016-12-31T19:42:05.266Z,20.4
2016-12-31T19:42:22.172Z,20.4
2016-12-31T19:42:39.086Z,20.4
2016-12-31T19:42:55.993Z,20.4
2016-12-31T19:43:12.924Z,20.4
2016-12-31T19:43:29.819Z,20.4
2016-12-31T19:43:46.733Z,20.4
2016-12-31T19:44:03.645Z,20.4
2016-12-31T19:44:20.564Z,20.4
2016-12-31T19:44:37.474Z,20.4
2016-12-31T19:44:54.379Z,20.4
2016-12-31T19:45:11.399Z,20.4
2016-12-31T19:45:28.345Z,20.4
2016-12-31T19:45:45.254Z,20.4
2016-12-31T19:46:02.168Z,20.4
2016-12-31T19:46:19.091Z,20.4
2016-12-31T19:46:36.005Z,20.4
2016-12-31T19:46:52.924Z,20.4
2016-12-31T19:47:09.830Z,20.4
2016-12-31T19:47:26.749Z,20.4
2016-12-31T19:47:43.669Z,20.4
2016-12-31T19:48:00.586Z,20.4
2016-12-31T19:48:17.492Z,20.3
2016-12-31T19:48:34.411Z,20.4
2016-12-31T19:48:51.324Z,20.4
2016-12-31T19:49:08.454Z,20.4
2016-12-31T19:49:25.370Z,20.3
2016-12-31T19:49:42.301Z,20.3
2016-12-31T19:49:59.216Z,20.3
2016-12-31T19:50:16.128Z,20.3
2016-12-31T19:50:33.058Z,20.3
2016-12-31T19:50:49.969Z,20.3
2016-12-31T19:51:06.890Z,20.3
2016-12-31T19:51:23.798Z,20.3
2016-12-31T19:51:40.710Z,20.3
2016-12-31T19:51:57.622Z,20.3
2016-12-31T19:52:14.539Z,20.3
2016-12-31T19:52:31.455Z,20.3
2016-12-31T19:52:48.376Z,20.3
2016-12-31T19:53:05.279Z,20.2
2016-12-31T19:53:22.186Z,20.3
2016-12-31T19:53:39.106Z,20.2
2016-12-31T19:53:56.020Z,20.2
2016-12-31T19:54:12.925Z,20.3
2016-12-31T19:54:29.875Z,20.3
2016-12-31T19:54:46.818Z,20.3
2016-12-31T19:55:03.718Z,20.3